createdAt,value
2022-12-01T00:01:46.472Z,3.30
2022-12-01T00:04:15.342Z,3.30
2022-12-01T00:06:44.354Z,3.30
2022-12-01T00:09:31.083Z,3.30
2022-12-01T00:12:02.364Z,3.30
2022-12-01T00:14:32.267Z,3.30
2022-12-01T00:17:00.362Z,3.30
2022-12-01T00:19:28.884Z,3.30
2022-12-01T00:22:03.266Z,3.30
2022-12-01T00:24:31.267Z,3.20
2022-12-01T00:27:00.441Z,3.30
2022-12-01T00:29:28.527Z,3.20
2022-12-01T00:31:58.791Z,3.30
2022-12-01T00:34:28.127Z,3.20
2022-12-01T00:37:00.425Z,3.20
2022-12-01T00:39:29.376Z,3.20
2022-12-01T00:41:57.453Z,3.20
2022-12-01T00:44:26.374Z,3.20
2022-12-01T00:46:54.855Z,3.20
2022-12-01T00:49:24.397Z,3.20
2022-12-01T00:51:52.431Z,3.20
2022-12-01T00:54:21.392Z,3.20
2022-12-01T00:56:49.956Z,3.20
2022-12-01T00:59:18.141Z,3.20
2022-12-01T01:01:52.011Z,3.20
2022-12-01T01:04:21.374Z,3.20
2022-12-01T01:06:51.367Z,3.20
2022-12-01T01:09:20.292Z,3.20
2022-12-01T01:11:48.452Z,3.10
2022-12-01T01:14:18.387Z,3.10
2022-12-01T01:16:47.464Z,3.20
2022-12-01T01:19:17.493Z,3.20
2022-12-01T01:21:45.945Z,3.20
2022-12-01T01:24:19.154Z,3.20
2022-12-01T01:26:50.296Z,3.20
2022-12-01T01:29:18.394Z,3.20
2022-12-01T01:31:46.312Z,3.20
2022-12-01T01:34:15.431Z,3.20
2022-12-01T01:36:48.259Z,3.20
2022-12-01T01:39:19.414Z,3.20
2022-12-01T01:41:48.366Z,3.10
2022-12-01T01:44:51.303Z,3.20
2022-12-01T01:47:27.667Z,3.10
2022-12-01T01:49:59.166Z,3.10
2022-12-01T01:52:30.399Z,3.10
2022-12-01T01:55:00.376Z,3.10
2022-12-01T01:57:33.135Z,3.10
2022-12-01T02:00:07.436Z,3.10
2022-12-01T02:02:47.482Z,3.10
2022-12-01T02:05:23.140Z,3.10
2022-12-01T02:07:58.491Z,3.10
2022-12-01T02:10:40.451Z,3.20
2022-12-01T02:13:19.295Z,3.10
2022-12-01T02:15:54.389Z,3.10
2022-12-01T02:18:35.283Z,3.10
2022-12-01T02:21:31.201Z,3.10
2022-12-01T02:24:48.313Z,3.10
2022-12-01T02:27:37.832Z,3.10
2022-12-01T02:30:12.297Z,3.10
2022-12-01T02:32:59.476Z,3.00
2022-12-01T02:35:34.811Z,3.00
2022-12-01T02:38:15.416Z,3.10
2022-12-01T02:40:49.432Z,3.00
2022-12-01T02:43:24.436Z,3.00
2022-12-01T02:45:57.358Z,3.00
2022-12-01T02:48:31.685Z,3.10
2022-12-01T02:51:04.205Z,3.00
2022-12-01T02:53:33.324Z,3.00
2022-12-01T02:56:04.522Z,3.00
2022-12-01T02:58:32.836Z,3.00
2022-12-01T03:01:12.626Z,3.00
2022-12-01T03:03:57.512Z,3.00
2022-12-01T03:06:38.186Z,3.00
2022-12-01T03:09:15.989Z,3.00
2022-12-01T03:11:51.390Z,3.00
2022-12-01T03:14:33.543Z,3.00
2022-12-01T03:17:06.460Z,3.00
2022-12-01T03:19:42.488Z,3.00
2022-12-01T03:22:15.423Z,3.00
2022-12-01T03:24:48.319Z,3.00
2022-12-01T03:27:20.444Z,3.10
2022-12-01T03:29:52.078Z,3.00
2022-12-01T03:32:25.392Z,3.00
2022-12-01T03:35:00.553Z,3.00
2022-12-01T03:37:35.461Z,3.00
2022-12-01T03:40:07.335Z,3.00
2022-12-01T03:42:39.436Z,3.00
2022-12-01T03:45:14.385Z,3.00
2022-12-01T03:47:43.431Z,3.00
2022-12-01T03:50:14.723Z,3.00
2022-12-01T03:52:50.446Z,3.00
2022-12-01T03:55:24.048Z,3.00
2022-12-01T03:58:02.675Z,3.00
2022-12-01T04:00:31.373Z,3.00
2022-12-01T04:03:02.180Z,3.00
2022-12-01T04:05:33.370Z,3.00
2022-12-01T04:08:03.246Z,3.00
2022-12-01T04:10:33.039Z,3.00
2022-12-01T04:13:05.388Z,3.00
2022-12-01T04:15:34.325Z,3.00
2022-12-01T04:18:03.063Z,3.00
2022-12-01T04:20:36.379Z,3.00
2022-12-01T04:23:04.447Z,3.00
2022-12-01T04:25:34.201Z,3.00
2022-12-01T04:28:02.452Z,3.00
2022-12-01T04:30:30.380Z,3.00
2022-12-01T04:33:02.487Z,3.00
2022-12-01T04:35:30.409Z,3.00
2022-12-01T04:38:02.525Z,3.00
2022-12-01T04:40:31.471Z,3.00
2022-12-01T04:43:00.420Z,3.00
2022-12-01T04:45:30.377Z,3.00
2022-12-01T04:47:58.495Z,2.90
2022-12-01T04:50:32.041Z,2.90
2022-12-01T04:53:01.481Z,3.00
2022-12-01T04:55:32.639Z,3.00
2022-12-01T04:58:05.028Z,2.90
2022-12-01T05:00:33.151Z,2.90
2022-12-01T05:03:01.548Z,3.00
2022-12-01T05:05:29.585Z,3.00
2022-12-01T05:08:00.469Z,3.00
2022-12-01T05:10:29.895Z,3.00
2022-12-01T05:12:58.131Z,3.00
2022-12-01T05:15:26.915Z,3.00
2022-12-01T05:17:54.912Z,2.90
2022-12-01T05:20:45.703Z,3.00
2022-12-01T05:23:16.713Z,3.00
2022-12-01T05:25:46.635Z,3.00
2022-12-01T05:28:14.623Z,3.00
2022-12-01T05:30:42.569Z,3.00
2022-12-01T05:33:10.737Z,3.00
2022-12-01T05:35:38.799Z,3.00
2022-12-01T05:38:10.161Z,3.00
2022-12-01T05:40:38.526Z,2.90
2022-12-01T05:43:08.447Z,3.00
2022-12-01T05:45:38.539Z,3.00
2022-12-01T05:48:06.914Z,2.90
2022-12-01T05:50:38.465Z,2.90
2022-12-01T05:53:08.741Z,2.90
2022-12-01T05:55:36.718Z,2.90
2022-12-01T05:58:07.437Z,2.90
2022-12-01T06:00:39.614Z,2.90
2022-12-01T06:03:14.309Z,2.90
2022-12-01T06:05:42.525Z,2.90
2022-12-01T06:11:04.502Z,2.90
2022-12-01T06:13:33.833Z,3.00
2022-12-01T06:16:03.502Z,2.90
2022-12-01T06:18:34.504Z,3.00
2022-12-01T06:21:02.876Z,3.00
2022-12-01T06:23:32.528Z,3.00
2022-12-01T06:26:01.110Z,3.00
2022-12-01T06:28:29.106Z,2.90
2022-12-01T06:31:03.148Z,3.00
2022-12-01T06:33:32.581Z,3.00
2022-12-01T06:36:00.885Z,3.00
2022-12-01T06:38:35.501Z,3.00
2022-12-01T06:41:07.197Z,3.00
2022-12-01T06:43:37.595Z,3.00
2022-12-01T06:46:08.602Z,3.00
2022-12-01T06:48:36.597Z,3.00
2022-12-01T06:51:05.677Z,3.00
2022-12-01T06:53:37.039Z,3.00
2022-12-01T06:56:06.484Z,3.00
2022-12-01T06:58:35.621Z,3.00
2022-12-01T07:01:10.674Z,3.10
2022-12-01T07:03:39.216Z,3.00
2022-12-01T07:06:07.443Z,3.10
2022-12-01T07:08:38.170Z,3.10
2022-12-01T07:11:08.328Z,3.10
2022-12-01T07:13:38.541Z,3.10
2022-12-01T07:16:07.664Z,3.10
2022-12-01T07:18:40.666Z,3.10
2022-12-01T07:21:11.421Z,3.20
2022-12-01T07:23:40.397Z,3.20
2022-12-01T07:26:11.804Z,3.20
2022-12-01T07:28:40.508Z,3.20
2022-12-01T07:31:10.094Z,3.20
2022-12-01T07:33:40.044Z,3.20
2022-12-01T07:36:09.418Z,3.20
2022-12-01T07:38:37.900Z,3.20
2022-12-01T07:41:07.338Z,3.20
2022-12-01T07:43:36.228Z,3.10
2022-12-01T07:46:08.806Z,3.20
2022-12-01T07:48:38.240Z,3.20
2022-12-01T07:51:08.338Z,3.10
2022-12-01T07:53:38.529Z,3.20
2022-12-01T07:56:10.027Z,3.20
2022-12-01T07:58:38.381Z,3.20
2022-12-01T08:01:12.587Z,3.20
2022-12-01T08:03:41.496Z,3.20
2022-12-01T08:06:11.431Z,3.10
2022-12-01T08:08:41.815Z,3.20
2022-12-01T08:11:12.629Z,3.20
2022-12-01T08:13:41.538Z,3.20
2022-12-01T08:16:13.658Z,3.10
2022-12-01T08:18:43.439Z,3.20
2022-12-01T08:21:18.362Z,3.30
2022-12-01T08:23:49.789Z,3.20
2022-12-01T08:26:19.708Z,3.30
2022-12-01T08:28:48.557Z,3.30
2022-12-01T08:31:19.045Z,3.30
2022-12-01T08:33:47.755Z,3.30
2022-12-01T08:36:19.063Z,3.30
2022-12-01T08:38:52.809Z,3.30
2022-12-01T08:41:24.771Z,3.30
2022-12-01T08:43:58.370Z,3.30
2022-12-01T08:46:31.436Z,3.30
2022-12-01T08:49:00.527Z,3.30
2022-12-01T08:51:30.517Z,3.30
2022-12-01T08:54:00.549Z,3.30
2022-12-01T08:56:31.236Z,3.30
2022-12-01T08:59:00.409Z,3.30
2022-12-01T09:01:29.953Z,3.30
2022-12-01T09:04:08.820Z,3.30
2022-12-01T09:06:41.830Z,3.30
2022-12-01T09:09:10.836Z,3.30
2022-12-01T09:11:44.446Z,3.30
2022-12-01T09:14:13.521Z,3.30
2022-12-01T09:16:44.604Z,3.30
2022-12-01T09:19:13.409Z,3.30
2022-12-01T09:21:45.356Z,3.20
2022-12-01T09:24:14.567Z,3.30
2022-12-01T09:26:43.525Z,3.30
2022-12-01T09:29:14.627Z,3.20
2022-12-01T09:31:43.330Z,3.20
2022-12-01T09:34:19.005Z,3.20
2022-12-01T09:36:49.109Z,3.20
2022-12-01T09:39:20.105Z,3.20
2022-12-01T09:41:51.392Z,3.20
2022-12-01T09:44:31.934Z,3.20
2022-12-01T09:47:10.644Z,3.20
2022-12-01T09:49:46.630Z,3.20
2022-12-01T09:52:19.853Z,3.20
2022-12-01T09:54:48.426Z,3.20
2022-12-01T09:57:28.188Z,3.20
2022-12-01T10:00:00.469Z,3.20
2022-12-01T10:02:35.694Z,3.20
2022-12-01T10:05:07.234Z,3.20
2022-12-01T10:07:45.745Z,3.20
2022-12-01T10:10:17.481Z,3.20
2022-12-01T10:12:48.533Z,3.20
2022-12-01T10:15:27.473Z,3.20
2022-12-01T10:18:05.898Z,3.20
2022-12-01T10:20:42.122Z,3.30
2022-12-01T10:23:30.496Z,3.30
2022-12-01T10:26:00.040Z,3.30
2022-12-01T10:28:52.483Z,3.30
2022-12-01T10:31:25.643Z,3.30
2022-12-01T10:34:02.578Z,3.30
2022-12-01T10:36:33.591Z,3.30
2022-12-01T10:39:05.532Z,3.30
2022-12-01T10:41:40.581Z,3.30
2022-12-01T10:44:10.599Z,3.20
2022-12-01T10:46:44.424Z,3.20
2022-12-01T10:49:16.613Z,3.20
2022-12-01T10:51:50.507Z,3.20
2022-12-01T10:54:21.583Z,3.20
2022-12-01T10:56:52.636Z,3.30
2022-12-01T10:59:32.470Z,3.30
2022-12-01T11:02:02.630Z,3.30
2022-12-01T11:04:45.420Z,3.30
2022-12-01T11:07:20.638Z,3.30
2022-12-01T11:10:16.626Z,3.20
2022-12-01T11:12:47.768Z,3.30
2022-12-01T11:15:23.567Z,3.30
2022-12-01T11:17:59.698Z,3.30
2022-12-01T11:20:34.172Z,3.30
2022-12-01T11:23:29.865Z,3.30
2022-12-01T11:26:05.306Z,3.30
2022-12-01T11:28:36.599Z,3.30
2022-12-01T11:31:07.146Z,3.30
2022-12-01T11:33:44.598Z,3.30
2022-12-01T11:36:21.931Z,3.30
2022-12-01T11:38:52.865Z,3.30
2022-12-01T11:41:31.158Z,3.30
2022-12-01T11:44:06.324Z,3.30
2022-12-01T11:46:46.502Z,3.20
2022-12-01T11:49:21.626Z,3.20
2022-12-01T11:51:49.980Z,3.20
2022-12-01T11:54:24.346Z,3.20
2022-12-01T11:57:31.876Z,3.20
2022-12-01T11:59:48.898Z,3.20
2022-12-01T12:02:30.719Z,3.20
2022-12-01T12:05:36.986Z,3.20
2022-12-01T12:08:13.728Z,3.30
2022-12-01T12:10:49.689Z,3.20
2022-12-01T12:13:42.763Z,3.20
2022-12-01T12:16:19.659Z,3.30
2022-12-01T12:19:12.495Z,3.30
2022-12-01T12:21:49.764Z,3.30
2022-12-01T12:24:34.539Z,3.30
2022-12-01T12:27:15.374Z,3.20
2022-12-01T12:29:59.576Z,3.20
2022-12-01T12:32:45.500Z,3.20
2022-12-01T12:35:29.835Z,3.20
2022-12-01T12:38:07.186Z,3.20
2022-12-01T12:40:43.108Z,3.20
2022-12-01T12:43:26.879Z,3.20
2022-12-01T12:46:07.387Z,3.20
2022-12-01T12:49:18.786Z,3.20
2022-12-01T12:51:50.607Z,3.20
2022-12-01T12:54:24.817Z,3.20
2022-12-01T12:56:59.648Z,3.20
2022-12-01T12:59:32.614Z,3.10
2022-12-01T13:02:10.015Z,3.10
2022-12-01T13:04:44.362Z,3.10
2022-12-01T13:07:30.131Z,3.00
2022-12-01T13:10:03.995Z,3.00
2022-12-01T13:12:35.703Z,3.00
2022-12-01T13:15:15.511Z,3.00
2022-12-01T13:17:52.505Z,3.00
2022-12-01T13:20:24.184Z,3.00
2022-12-01T13:22:54.424Z,3.00
2022-12-01T13:25:27.187Z,3.00
2022-12-01T13:27:57.209Z,3.00
2022-12-01T13:30:26.936Z,2.90
2022-12-01T13:33:05.038Z,2.90
2022-12-01T13:35:36.366Z,2.90
2022-12-01T13:38:33.999Z,2.90
2022-12-01T13:41:23.921Z,2.80
2022-12-01T13:44:08.694Z,2.80
2022-12-01T13:46:52.893Z,2.80
2022-12-01T13:49:40.543Z,2.80
2022-12-01T13:52:29.444Z,2.80
2022-12-01T13:55:16.734Z,2.80
2022-12-01T13:57:48.600Z,2.80
2022-12-01T14:00:26.209Z,2.90
2022-12-01T14:03:32.708Z,2.80
2022-12-01T14:06:11.525Z,2.80
2022-12-01T14:08:48.885Z,2.80
2022-12-01T14:11:24.419Z,2.80
2022-12-01T14:13:56.331Z,2.80
2022-12-01T14:16:26.333Z,2.80
2022-12-01T14:18:57.778Z,2.80
2022-12-01T14:21:44.815Z,2.80
2022-12-01T14:24:28.540Z,2.70
2022-12-01T14:26:57.286Z,2.60
2022-12-01T14:29:29.661Z,2.70
2022-12-01T14:32:26.470Z,2.70
2022-12-01T14:35:02.598Z,2.60
2022-12-01T14:37:40.679Z,2.60
2022-12-01T14:40:14.645Z,2.60
2022-12-01T14:43:04.531Z,2.60
2022-12-01T14:45:36.696Z,2.60
2022-12-01T14:48:06.636Z,2.60
2022-12-01T14:50:45.082Z,2.50
2022-12-01T14:53:24.619Z,2.60
2022-12-01T14:55:57.363Z,2.60
2022-12-01T14:58:28.934Z,2.50
2022-12-01T15:01:05.858Z,2.50
2022-12-01T15:03:40.579Z,2.50
2022-12-01T15:06:09.585Z,2.60
2022-12-01T15:08:45.733Z,2.60
2022-12-01T15:11:22.283Z,2.50
2022-12-01T15:13:52.216Z,2.50
2022-12-01T15:16:23.349Z,2.50
2022-12-01T15:18:52.547Z,2.50
2022-12-01T15:21:27.655Z,2.50
2022-12-01T15:24:02.661Z,2.50
2022-12-01T15:26:32.557Z,2.40
2022-12-01T15:29:16.417Z,2.40
2022-12-01T15:31:46.756Z,2.40
2022-12-01T15:34:18.650Z,2.30
2022-12-01T15:36:48.366Z,2.30
2022-12-01T15:39:24.398Z,2.20
2022-12-01T15:41:54.580Z,2.20
2022-12-01T15:44:28.700Z,2.20
2022-12-01T15:46:58.284Z,2.20
2022-12-01T15:49:29.723Z,2.20
2022-12-01T15:52:07.398Z,2.10
2022-12-01T15:54:38.555Z,2.10
2022-12-01T15:57:09.582Z,2.20
2022-12-01T15:59:40.189Z,2.10
2022-12-01T16:02:25.718Z,2.10
2022-12-01T16:05:03.387Z,2.10
2022-12-01T16:08:11.494Z,2.00
2022-12-01T16:10:30.396Z,2.00
2022-12-01T16:13:35.853Z,2.00
2022-12-01T16:16:29.800Z,2.00
2022-12-01T16:19:00.807Z,2.00
2022-12-01T16:21:29.962Z,1.90
2022-12-01T16:24:02.468Z,1.90
2022-12-01T16:26:33.916Z,1.90
2022-12-01T16:29:01.981Z,1.90
2022-12-01T16:31:30.089Z,1.80
2022-12-01T16:34:13.784Z,1.80
2022-12-01T16:36:47.209Z,1.80
2022-12-01T16:39:15.791Z,1.80
2022-12-01T16:41:46.907Z,1.70
2022-12-01T16:44:31.118Z,1.70
2022-12-01T16:47:01.488Z,1.70
2022-12-01T16:49:29.629Z,1.80
2022-12-01T16:52:03.600Z,1.70
2022-12-01T16:54:39.406Z,1.70
2022-12-01T16:57:08.964Z,1.60
2022-12-01T16:59:37.598Z,1.60
2022-12-01T17:02:05.727Z,1.60
2022-12-01T17:04:36.512Z,1.60
2022-12-01T17:07:05.205Z,1.60
2022-12-01T17:09:36.577Z,1.60
2022-12-01T17:12:05.908Z,1.60
2022-12-01T17:14:36.721Z,1.60
2022-12-01T17:17:08.548Z,1.50
2022-12-01T17:19:36.788Z,1.60
2022-12-01T17:22:04.906Z,1.60
2022-12-01T17:24:33.011Z,1.50
2022-12-01T17:27:01.036Z,1.50
2022-12-01T17:29:29.090Z,1.50
2022-12-01T17:31:58.476Z,1.50
2022-12-01T17:34:26.432Z,1.50
2022-12-01T17:36:57.245Z,1.50
2022-12-01T17:39:25.221Z,1.50
2022-12-01T17:41:55.335Z,1.50
2022-12-01T17:44:23.467Z,1.50
2022-12-01T17:46:51.588Z,1.50
2022-12-01T17:49:21.247Z,1.40
2022-12-01T17:51:49.466Z,1.40
2022-12-01T17:54:19.440Z,1.40
2022-12-01T17:56:48.100Z,1.40
2022-12-01T17:59:16.114Z,1.30
2022-12-01T18:01:44.526Z,1.40
2022-12-01T18:04:12.689Z,1.40
2022-12-01T18:06:42.029Z,1.40
2022-12-01T18:09:13.448Z,1.40
2022-12-01T18:11:41.409Z,1.40
2022-12-01T18:14:09.440Z,1.40
2022-12-01T18:16:37.615Z,1.30
2022-12-01T18:19:05.702Z,1.30
2022-12-01T18:21:33.695Z,1.30
2022-12-01T18:24:05.174Z,1.30
2022-12-01T18:26:37.783Z,1.30
2022-12-01T18:29:08.723Z,1.30
2022-12-01T18:31:36.800Z,1.30
2022-12-01T18:34:06.919Z,1.30
2022-12-01T18:36:37.573Z,1.30
2022-12-01T18:39:09.412Z,1.30
2022-12-01T18:41:39.630Z,1.30
2022-12-01T18:44:07.758Z,1.30
2022-12-01T18:46:36.473Z,1.30
2022-12-01T18:49:05.258Z,1.20
2022-12-01T18:51:35.092Z,1.20
2022-12-01T18:54:07.495Z,1.30
2022-12-01T18:56:36.918Z,1.10
2022-12-01T18:59:06.892Z,1.10
2022-12-01T19:01:37.646Z,1.10
2022-12-01T19:04:07.523Z,1.20
2022-12-01T19:06:38.098Z,1.10
2022-12-01T19:09:09.082Z,1.00
2022-12-01T19:11:42.527Z,1.00
2022-12-01T19:14:16.784Z,1.00
2022-12-01T19:16:46.389Z,1.00
2022-12-01T19:19:17.046Z,1.10
2022-12-01T19:21:45.413Z,1.00
2022-12-01T19:24:13.405Z,1.00
2022-12-01T19:26:44.632Z,1.00
2022-12-01T19:29:13.209Z,1.00
2022-12-01T19:31:41.517Z,1.00
2022-12-01T19:34:10.206Z,0.90
2022-12-01T19:36:40.040Z,0.90
2022-12-01T19:39:08.136Z,0.90
2022-12-01T19:41:38.528Z,0.90
2022-12-01T19:44:08.024Z,0.90
2022-12-01T19:46:36.096Z,1.00
2022-12-01T19:49:06.766Z,1.00
2022-12-01T19:51:42.182Z,1.00
2022-12-01T19:54:14.469Z,1.00
2022-12-01T19:56:42.905Z,1.00
2022-12-01T19:59:13.604Z,0.90
2022-12-01T20:01:42.074Z,0.90
2022-12-01T20:04:10.140Z,0.90
2022-12-01T20:06:39.032Z,0.90
2022-12-01T20:09:08.114Z,0.90
2022-12-01T20:11:37.375Z,0.90
2022-12-01T20:14:07.646Z,0.90
2022-12-01T20:16:37.270Z,0.90
2022-12-01T20:19:07.110Z,0.90
2022-12-01T20:21:39.258Z,1.00
2022-12-01T20:24:14.227Z,0.90
2022-12-01T20:26:44.644Z,0.90
2022-12-01T20:29:14.960Z,0.90
2022-12-01T20:31:45.175Z,0.80
2022-12-01T20:34:16.860Z,0.80
2022-12-01T20:36:45.694Z,0.80
2022-12-01T20:39:14.515Z,0.80
2022-12-01T20:41:43.990Z,0.70
2022-12-01T20:44:12.908Z,0.70
2022-12-01T20:46:41.871Z,0.80
2022-12-01T20:49:11.244Z,0.80
2022-12-01T20:51:39.485Z,0.80
2022-12-01T20:56:57.977Z,0.90
2022-12-01T20:59:26.110Z,0.80
2022-12-01T21:01:54.259Z,0.80
2022-12-01T21:04:23.721Z,0.80
2022-12-01T21:06:53.477Z,0.80
2022-12-01T21:09:26.076Z,0.80
2022-12-01T21:12:11.350Z,0.80
2022-12-01T21:14:43.439Z,0.80
2022-12-01T21:17:22.235Z,0.80
2022-12-01T21:19:57.344Z,0.80
2022-12-01T21:22:26.454Z,0.70
2022-12-01T21:25:03.552Z,0.70
2022-12-01T21:27:32.421Z,0.80
2022-12-01T21:30:00.429Z,0.80
2022-12-01T21:32:37.790Z,0.80
2022-12-01T21:35:17.713Z,0.80
2022-12-01T21:37:46.611Z,0.80
2022-12-01T21:40:19.920Z,0.80
2022-12-01T21:42:52.511Z,0.70
2022-12-01T21:45:26.301Z,0.80
2022-12-01T21:48:00.587Z,0.70
2022-12-01T21:50:32.911Z,0.80
2022-12-01T21:53:01.172Z,0.70
2022-12-01T21:55:38.643Z,0.70
2022-12-01T21:58:25.091Z,0.70
2022-12-01T22:00:55.728Z,0.70
2022-12-01T22:03:29.696Z,0.70
2022-12-01T22:06:28.240Z,0.70
2022-12-01T22:08:52.737Z,0.70
2022-12-01T22:11:23.659Z,0.70
2022-12-01T22:14:00.789Z,0.70
2022-12-01T22:16:35.396Z,0.70
2022-12-01T22:19:22.805Z,0.70
2022-12-01T22:21:56.044Z,0.70
2022-12-01T22:24:26.611Z,0.80
2022-12-01T22:27:14.021Z,0.80
2022-12-01T22:29:44.247Z,0.80
2022-12-01T22:32:34.370Z,0.80
2022-12-01T22:35:26.700Z,0.80
2022-12-01T22:38:01.685Z,0.70
2022-12-01T22:40:52.785Z,0.70
2022-12-01T22:43:25.772Z,0.70
2022-12-01T22:46:03.693Z,0.70
2022-12-01T22:48:36.165Z,0.70
2022-12-01T22:51:25.097Z,0.70
2022-12-01T22:53:58.827Z,0.70
2022-12-01T22:56:39.209Z,0.70
2022-12-01T22:59:15.376Z,0.60
2022-12-01T23:01:50.164Z,0.60
2022-12-01T23:04:26.582Z,0.60
2022-12-01T23:07:11.513Z,0.60
2022-12-01T23:09:45.277Z,0.60
2022-12-01T23:12:26.886Z,0.70
2022-12-01T23:14:59.674Z,0.60
2022-12-01T23:17:29.888Z,0.60
2022-12-01T23:20:18.716Z,0.60
2022-12-01T23:22:46.875Z,0.60
2022-12-01T23:25:19.720Z,0.60
2022-12-01T23:27:50.853Z,0.60
2022-12-01T23:30:20.556Z,0.60
2022-12-01T23:32:58.581Z,0.50
2022-12-01T23:35:27.911Z,0.50
2022-12-01T23:37:56.821Z,0.50
2022-12-01T23:40:32.858Z,0.50
2022-12-01T23:43:11.906Z,0.50
2022-12-01T23:45:40.789Z,0.60
2022-12-01T23:48:17.427Z,0.60
2022-12-01T23:50:49.941Z,0.50
2022-12-01T23:53:25.944Z,0.50
2022-12-01T23:55:59.772Z,0.50
2022-12-01T23:58:27.914Z,0.50
